createdAt,value
2019-02-14T00:02:04.386Z,296.73
2019-02-14T00:04:34.366Z,292.87
2019-02-14T00:07:04.323Z,292.00
2019-02-14T00:09:35.258Z,286.10
2019-02-14T00:12:05.218Z,278.77
2019-02-14T00:14:36.094Z,283.30
2019-02-14T00:17:06.141Z,280.37
2019-02-14T00:19:36.105Z,284.10
2019-02-14T00:22:06.064Z,279.43
2019-02-14T00:24:36.032Z,274.13
2019-02-14T00:27:05.914Z,266.17
2019-02-14T00:29:35.893Z,265.40
2019-02-14T00:32:05.781Z,268.37
2019-02-14T00:34:35.814Z,268.07
2019-02-14T00:37:05.703Z,261.43
2019-02-14T00:39:35.695Z,259.43
2019-02-14T00:42:05.662Z,260.50
2019-02-14T00:44:35.578Z,260.57
2019-02-14T00:47:05.534Z,257.63
2019-02-14T00:49:35.487Z,256.60
2019-02-14T00:52:05.440Z,255.10
2019-02-14T00:54:35.400Z,250.43
2019-02-14T00:57:05.284Z,246.77
2019-02-14T00:59:35.314Z,246.13
2019-02-14T01:02:05.186Z,249.87
2019-02-14T01:04:35.165Z,245.73
2019-02-14T01:07:05.323Z,241.43
2019-02-14T01:09:35.241Z,248.13
2019-02-14T01:12:06.127Z,239.53
2019-02-14T01:14:36.082Z,240.77
2019-02-14T01:17:05.954Z,233.23
2019-02-14T01:19:36.834Z,233.13
2019-02-14T01:22:06.676Z,231.23
2019-02-14T01:24:36.630Z,228.50
2019-02-14T01:27:06.585Z,227.47
2019-02-14T01:29:36.541Z,228.07
2019-02-14T01:32:06.503Z,230.40
2019-02-14T01:34:36.470Z,219.93
2019-02-14T01:37:06.430Z,220.93
2019-02-14T01:39:36.330Z,219.93
2019-02-14T01:42:06.303Z,221.07
2019-02-14T01:44:36.188Z,215.83
2019-02-14T01:47:07.995Z,214.67
2019-02-14T01:49:38.074Z,217.50
2019-02-14T01:52:07.957Z,215.13
2019-02-14T01:54:37.845Z,214.47
2019-02-14T01:57:07.890Z,211.10
2019-02-14T01:59:37.907Z,203.17
2019-02-14T02:02:07.862Z,209.73
2019-02-14T02:04:38.807Z,209.27
2019-02-14T02:07:08.862Z,204.60
2019-02-14T02:09:38.826Z,202.70
2019-02-14T02:12:08.779Z,204.17
2019-02-14T02:14:38.843Z,198.20
2019-02-14T02:17:08.732Z,195.70
2019-02-14T02:19:38.715Z,198.03
2019-02-14T02:22:08.595Z,188.07
2019-02-14T02:24:38.575Z,191.77
2019-02-14T02:27:08.462Z,191.60
2019-02-14T02:29:38.367Z,188.87
2019-02-14T02:32:08.337Z,187.57
2019-02-14T02:34:38.299Z,186.47
2019-02-14T02:37:08.255Z,185.90
2019-02-14T02:39:38.315Z,185.87
2019-02-14T02:42:08.356Z,185.43
2019-02-14T02:44:38.357Z,179.43
2019-02-14T02:47:08.326Z,183.13
2019-02-14T02:49:38.220Z,180.17
2019-02-14T02:52:08.109Z,174.03
2019-02-14T02:54:38.083Z,175.73
2019-02-14T02:57:08.042Z,176.73
2019-02-14T02:59:37.991Z,175.60
2019-02-14T03:02:07.878Z,171.23
2019-02-14T03:04:37.834Z,170.90
2019-02-14T03:07:07.818Z,170.70
2019-02-14T03:09:37.700Z,162.47
2019-02-14T03:12:07.735Z,165.97
2019-02-14T03:14:37.718Z,165.93
2019-02-14T03:17:07.674Z,165.60
2019-02-14T03:19:37.638Z,159.67
2019-02-14T03:22:07.609Z,162.80
2019-02-14T03:24:37.566Z,163.10
2019-02-14T03:27:07.442Z,158.73
2019-02-14T03:29:37.403Z,155.93
2019-02-14T03:32:07.360Z,160.10
2019-02-14T03:34:37.330Z,156.03
2019-02-14T03:37:07.289Z,156.60
2019-02-14T03:39:37.169Z,154.87
2019-02-14T03:42:07.125Z,152.57
2019-02-14T03:44:37.086Z,151.47
2019-02-14T03:47:06.974Z,146.93
2019-02-14T03:49:37.825Z,143.33
2019-02-14T03:52:07.866Z,148.70
2019-02-14T03:54:37.820Z,147.37
2019-02-14T03:57:07.706Z,145.83
2019-02-14T03:59:37.664Z,146.63
2019-02-14T04:02:07.547Z,147.60
2019-02-14T04:04:37.515Z,139.00
2019-02-14T04:07:07.469Z,141.40
2019-02-14T04:09:37.434Z,140.80
2019-02-14T04:12:07.399Z,140.03
2019-02-14T04:14:37.362Z,139.43
2019-02-14T04:17:07.338Z,142.97
2019-02-14T04:19:37.294Z,137.60
2019-02-14T04:22:07.189Z,132.47
2019-02-14T04:24:37.138Z,137.73
2019-02-14T04:27:07.111Z,132.33
2019-02-14T04:29:37.141Z,134.63
2019-02-14T04:32:07.053Z,129.93
2019-02-14T04:34:37.006Z,135.23
2019-02-14T04:37:06.958Z,127.63
2019-02-14T04:39:36.914Z,133.23
2019-02-14T04:42:06.915Z,126.47
2019-02-14T04:44:36.798Z,126.53
2019-02-14T04:47:06.745Z,129.03
2019-02-14T04:49:36.626Z,132.73
2019-02-14T04:52:06.583Z,130.80
2019-02-14T04:54:36.534Z,132.13
2019-02-14T04:57:06.490Z,132.00
2019-02-14T04:59:36.529Z,128.40
2019-02-14T05:02:06.477Z,133.13
2019-02-14T05:04:36.445Z,136.43
2019-02-14T05:07:06.322Z,140.37
2019-02-14T05:09:36.278Z,145.23
2019-02-14T05:12:06.158Z,145.03
2019-02-14T05:14:36.110Z,148.60
2019-02-14T05:17:06.070Z,151.63
2019-02-14T05:19:35.941Z,159.47
2019-02-14T05:22:05.906Z,164.33
2019-02-14T05:24:35.868Z,172.37
2019-02-14T05:27:05.819Z,194.27
2019-02-14T05:29:35.695Z,186.53
2019-02-14T05:32:05.590Z,193.70
2019-02-14T05:34:35.546Z,191.83
2019-02-14T05:37:05.501Z,201.30
2019-02-14T05:39:35.454Z,214.83
2019-02-14T05:42:05.414Z,207.00
2019-02-14T05:44:35.289Z,210.27
2019-02-14T05:47:05.246Z,208.83
2019-02-14T05:49:35.213Z,220.20
2019-02-14T05:52:05.168Z,221.93
2019-02-14T05:54:35.123Z,222.87
2019-02-14T05:57:05.009Z,229.83
2019-02-14T05:59:34.900Z,231.97
2019-02-14T06:02:04.854Z,225.83
2019-02-14T06:04:34.725Z,232.83
2019-02-14T06:07:04.691Z,225.97
2019-02-14T06:09:34.570Z,249.87
2019-02-14T06:12:04.526Z,239.20
2019-02-14T06:14:34.570Z,237.13
2019-02-14T06:17:04.533Z,248.50
2019-02-14T06:19:34.418Z,240.57
2019-02-14T06:22:04.362Z,241.40
2019-02-14T06:24:34.237Z,239.27
2019-02-14T06:27:05.167Z,234.50
2019-02-14T06:29:35.129Z,223.00
2019-02-14T06:32:05.012Z,229.70
2019-02-14T06:34:34.881Z,214.17
2019-02-14T06:37:09.633Z,219.93
2019-02-14T06:39:36.501Z,201.73
2019-02-14T06:42:06.378Z,195.23
2019-02-14T06:44:36.418Z,243.67
2019-02-14T06:47:06.394Z,216.80
2019-02-14T06:49:36.377Z,201.87
2019-02-14T06:52:06.273Z,213.03
2019-02-14T06:54:36.190Z,210.60
2019-02-14T06:57:06.145Z,220.93
2019-02-14T06:59:36.029Z,240.33
2019-02-14T07:02:05.991Z,244.83
2019-02-14T07:04:35.890Z,259.27
2019-02-14T07:07:05.780Z,272.17
2019-02-14T07:09:35.787Z,270.03
2019-02-14T07:12:05.678Z,265.67
2019-02-14T07:14:35.566Z,272.47
2019-02-14T07:17:05.522Z,279.53
2019-02-14T07:19:35.502Z,281.07
2019-02-14T07:22:05.470Z,276.43
2019-02-14T07:24:35.438Z,281.03
2019-02-14T07:27:05.396Z,283.90
2019-02-14T07:29:35.361Z,287.43
2019-02-14T07:32:05.370Z,285.53
2019-02-14T07:34:35.254Z,286.20
2019-02-14T07:37:05.270Z,290.87
2019-02-14T07:39:35.233Z,285.67
2019-02-14T07:42:05.233Z,290.90
2019-02-14T07:44:35.226Z,291.97
2019-02-14T07:47:05.174Z,277.63
2019-02-14T07:49:35.126Z,279.00
2019-02-14T07:52:05.080Z,284.70
2019-02-14T07:54:35.003Z,285.53
2019-02-14T07:57:04.998Z,282.57
2019-02-14T07:59:34.954Z,284.53
2019-02-14T08:02:05.038Z,277.47
2019-02-14T08:04:35.046Z,280.90
2019-02-14T08:07:05.088Z,273.17
2019-02-14T08:09:35.130Z,270.70
2019-02-14T08:12:05.091Z,275.87
2019-02-14T08:14:35.079Z,274.50
2019-02-14T08:17:04.965Z,268.20
2019-02-14T08:19:35.223Z,265.60
2019-02-14T08:22:05.200Z,266.47
2019-02-14T08:24:35.110Z,265.93
2019-02-14T08:27:05.002Z,266.77
2019-02-14T08:29:34.978Z,261.50
2019-02-14T08:32:04.968Z,263.80
2019-02-14T08:34:35.002Z,255.67
2019-02-14T08:37:04.915Z,262.20
2019-02-14T08:39:34.899Z,259.17
2019-02-14T08:42:04.819Z,251.70
2019-02-14T08:44:34.794Z,252.63
2019-02-14T08:47:04.786Z,246.87
2019-02-14T08:49:35.240Z,248.10
2019-02-14T08:52:06.175Z,251.80
2019-02-14T08:54:36.062Z,245.80
2019-02-14T08:57:06.046Z,244.00
2019-02-14T08:59:36.022Z,245.63
2019-02-14T09:02:05.975Z,239.10
2019-02-14T09:04:35.962Z,239.53
2019-02-14T09:07:05.842Z,237.93
2019-02-14T09:09:35.858Z,235.50
2019-02-14T09:12:05.809Z,234.50
2019-02-14T09:14:35.702Z,235.50
2019-02-14T09:17:05.693Z,232.33
2019-02-14T09:19:35.638Z,229.80
2019-02-14T09:22:05.702Z,229.27
2019-02-14T09:24:35.606Z,224.77
2019-02-14T09:27:05.586Z,221.40
2019-02-14T09:29:35.487Z,226.33
2019-02-14T09:32:05.497Z,228.23
2019-02-14T09:34:35.366Z,603.77
2019-02-14T09:37:05.303Z,464.10
2019-02-14T09:39:40.827Z,412.20
2019-02-14T09:42:06.915Z,371.07
2019-02-14T09:44:36.895Z,323.27
2019-02-14T09:47:06.806Z,337.00
2019-02-14T09:49:36.762Z,335.47
2019-02-14T09:52:06.659Z,328.30
2019-02-14T09:54:38.226Z,328.37
2019-02-14T09:57:08.317Z,322.57
2019-02-14T09:59:38.350Z,316.00
2019-02-14T10:02:08.250Z,314.97
2019-02-14T10:04:38.212Z,315.03
2019-02-14T10:07:08.139Z,314.00
2019-02-14T10:09:38.241Z,303.90
2019-02-14T10:12:08.142Z,303.00
2019-02-14T10:14:38.110Z,300.13
2019-02-14T10:17:08.094Z,292.17
2019-02-14T10:19:38.142Z,307.60
2019-02-14T10:22:08.114Z,302.10
2019-02-14T10:24:37.998Z,302.27
2019-02-14T10:27:08.010Z,310.93
2019-02-14T10:29:38.006Z,309.03
2019-02-14T10:32:07.982Z,315.60
2019-02-14T10:34:37.931Z,314.30
2019-02-14T10:37:07.854Z,317.33
2019-02-14T10:39:37.819Z,326.23
2019-02-14T10:42:07.729Z,332.00
2019-02-14T10:44:37.698Z,317.70
2019-02-14T10:47:09.025Z,335.83
2019-02-14T10:49:39.010Z,334.93
2019-02-14T10:52:09.370Z,328.60
2019-02-14T10:54:39.661Z,334.17
2019-02-14T10:57:09.647Z,325.37
2019-02-14T10:59:39.558Z,329.37
2019-02-14T11:02:09.454Z,326.53
2019-02-14T11:04:39.346Z,332.70
2019-02-14T11:07:09.403Z,348.90
2019-02-14T11:09:39.365Z,345.60
2019-02-14T11:12:09.322Z,349.43
2019-02-14T11:14:39.208Z,374.30
2019-02-14T11:17:09.242Z,442.47
2019-02-14T11:19:39.199Z,439.07
2019-02-14T11:22:09.087Z,425.73
2019-02-14T11:24:38.977Z,426.70
2019-02-14T11:27:08.851Z,425.90
2019-02-14T11:29:38.806Z,432.23
2019-02-14T11:32:08.774Z,429.70
2019-02-14T11:34:38.738Z,430.87
2019-02-14T11:37:08.724Z,427.53
2019-02-14T11:39:38.690Z,425.07
2019-02-14T11:42:08.655Z,427.53
2019-02-14T11:44:40.047Z,429.53
2019-02-14T11:47:10.090Z,419.00
2019-02-14T11:49:39.983Z,420.67
2019-02-14T11:52:10.031Z,543.33
2019-02-14T11:54:39.910Z,584.23
2019-02-14T11:57:09.814Z,583.23
2019-02-14T11:59:40.563Z,551.90
2019-02-14T12:02:10.627Z,542.63
2019-02-14T12:04:40.613Z,359.93
2019-02-14T12:07:10.505Z,325.67
2019-02-14T12:09:40.482Z,296.90
2019-02-14T12:12:10.433Z,310.70
2019-02-14T12:14:40.327Z,309.60
2019-02-14T12:17:10.195Z,306.67
2019-02-14T12:19:40.150Z,312.73
2019-02-14T12:22:10.137Z,309.60
2019-02-14T12:24:40.134Z,308.57
2019-02-14T12:27:10.103Z,307.47
2019-02-14T12:29:39.982Z,309.67
2019-02-14T12:32:09.934Z,305.03
2019-02-14T12:34:39.878Z,299.63
2019-02-14T12:37:09.851Z,300.23
2019-02-14T12:39:39.820Z,295.67
2019-02-14T12:42:09.787Z,297.87
2019-02-14T12:44:39.794Z,305.67
2019-02-14T12:47:09.763Z,303.17
2019-02-14T12:49:39.806Z,305.03
2019-02-14T12:52:09.761Z,301.13
2019-02-14T12:54:39.723Z,300.90
2019-02-14T12:57:09.739Z,309.00
2019-02-14T12:59:39.706Z,299.97
2019-02-14T13:02:09.742Z,292.13
2019-02-14T13:04:39.724Z,289.50
2019-02-14T13:07:09.727Z,289.27
2019-02-14T13:09:39.899Z,286.70
2019-02-14T13:12:12.189Z,280.73
2019-02-14T13:14:42.074Z,280.60
2019-02-14T13:17:12.042Z,283.30
2019-02-14T13:19:41.990Z,281.97
2019-02-14T13:22:11.952Z,278.40
2019-02-14T13:24:41.989Z,264.73
2019-02-14T13:27:11.967Z,253.40
2019-02-14T13:29:41.947Z,256.60
2019-02-14T13:32:13.629Z,254.20
2019-02-14T13:34:43.587Z,252.63
2019-02-14T13:37:15.175Z,246.30
2019-02-14T13:39:45.179Z,248.20
2019-02-14T13:42:15.110Z,244.17
2019-02-14T13:44:46.099Z,248.10
2019-02-14T13:47:16.063Z,246.93
2019-02-14T13:49:46.032Z,249.33
2019-02-14T13:52:15.932Z,240.67
2019-02-14T13:54:45.963Z,245.43
2019-02-14T13:57:15.868Z,238.87
2019-02-14T13:59:45.910Z,236.30
2019-02-14T14:02:15.830Z,233.40
2019-02-14T14:04:45.716Z,236.93
2019-02-14T14:07:16.671Z,236.13
2019-02-14T14:09:46.635Z,233.93
2019-02-14T14:12:16.631Z,232.23
2019-02-14T14:14:46.594Z,233.37
2019-02-14T14:17:16.562Z,227.23
2019-02-14T14:19:46.478Z,222.90
2019-02-14T14:22:16.438Z,232.17
2019-02-14T14:24:46.546Z,224.00
2019-02-14T14:27:16.566Z,225.53
2019-02-14T14:29:46.606Z,221.00
2019-02-14T14:32:16.560Z,222.67
2019-02-14T14:34:46.582Z,217.33
2019-02-14T14:37:16.582Z,212.50
2019-02-14T14:39:48.026Z,216.17
2019-02-14T14:42:55.250Z,210.97
2019-02-14T14:45:40.227Z,212.80
2019-02-14T14:48:19.365Z,209.27
2019-02-14T14:50:43.317Z,209.53
2019-02-14T14:53:13.307Z,207.07
2019-02-14T14:55:43.294Z,208.30
2019-02-14T14:58:13.260Z,204.23
2019-02-14T15:00:43.230Z,203.67
2019-02-14T15:03:13.199Z,197.43
2019-02-14T15:05:43.191Z,202.73
2019-02-14T15:08:13.266Z,194.60
2019-02-14T15:10:43.223Z,195.97
2019-02-14T15:13:13.279Z,194.77
2019-02-14T15:15:43.300Z,196.00
2019-02-14T15:18:13.178Z,192.43
2019-02-14T15:20:43.198Z,193.90
2019-02-14T15:23:13.285Z,187.20
2019-02-14T15:25:43.306Z,198.60
2019-02-14T15:28:13.232Z,184.40
2019-02-14T15:30:43.186Z,188.43
2019-02-14T15:33:13.162Z,184.93
2019-02-14T15:35:43.156Z,185.83
2019-02-14T15:38:13.210Z,187.93
2019-02-14T15:40:43.129Z,178.50
2019-02-14T15:43:13.187Z,188.53
2019-02-14T15:45:43.242Z,179.37
2019-02-14T15:48:13.141Z,178.30
2019-02-14T15:50:43.126Z,177.60
2019-02-14T15:53:13.112Z,175.27
2019-02-14T15:55:43.832Z,174.03
2019-02-14T15:58:13.991Z,174.50
2019-02-14T16:00:44.009Z,170.60
2019-02-14T16:03:15.314Z,172.47
2019-02-14T16:05:46.833Z,170.80
2019-02-14T16:08:16.782Z,166.47
2019-02-14T16:10:46.747Z,166.03
2019-02-14T16:13:16.749Z,164.37
2019-02-14T16:15:46.794Z,163.87
2019-02-14T16:18:16.779Z,161.33
2019-02-14T16:20:46.738Z,158.20
2019-02-14T16:23:16.696Z,162.63
2019-02-14T16:25:46.675Z,160.50
2019-02-14T16:28:16.647Z,173.13
2019-02-14T16:30:47.510Z,176.90
2019-02-14T16:33:17.483Z,170.57
2019-02-14T16:35:47.469Z,168.13
2019-02-14T16:38:17.459Z,167.57
2019-02-14T16:40:47.427Z,162.17
2019-02-14T16:43:17.320Z,154.57
2019-02-14T16:45:47.307Z,163.37
2019-02-14T16:48:17.263Z,161.37
2019-02-14T16:50:47.215Z,168.30
2019-02-14T16:53:17.170Z,185.80
2019-02-14T16:55:47.151Z,190.53
2019-02-14T16:58:17.046Z,194.87
2019-02-14T17:00:47.011Z,187.10
2019-02-14T17:03:17.056Z,220.87
2019-02-14T17:05:47.073Z,228.17
2019-02-14T17:08:17.048Z,241.63
2019-02-14T17:10:47.012Z,242.00
2019-02-14T17:13:17.014Z,243.37
2019-02-14T17:15:47.014Z,240.70
2019-02-14T17:18:17.006Z,234.10
2019-02-14T17:20:46.999Z,232.63
2019-02-14T17:23:16.984Z,238.33
2019-02-14T17:25:46.955Z,229.40
2019-02-14T17:28:16.929Z,220.30
2019-02-14T17:30:47.002Z,220.80
2019-02-14T17:33:19.810Z,206.70
2019-02-14T17:35:49.952Z,214.23
2019-02-14T17:38:19.997Z,199.50
2019-02-14T17:43:22.622Z,209.17
2019-02-14T17:45:52.567Z,198.03
2019-02-14T17:48:22.518Z,190.33
2019-02-14T17:50:52.402Z,187.70
2019-02-14T17:53:22.286Z,180.37
2019-02-14T17:55:52.235Z,180.07
2019-02-14T17:58:22.203Z,181.77
2019-02-14T18:00:52.144Z,176.80
2019-02-14T18:03:22.151Z,170.27
2019-02-14T18:05:52.022Z,166.67
2019-02-14T18:08:21.998Z,168.10
2019-02-14T18:10:54.971Z,168.87
2019-02-14T18:13:23.594Z,160.57
2019-02-14T18:15:53.566Z,160.83
2019-02-14T18:18:23.547Z,156.13
2019-02-14T18:20:53.515Z,157.90
2019-02-14T18:23:23.384Z,155.67
2019-02-14T18:25:53.283Z,157.27
2019-02-14T18:28:24.190Z,152.60
2019-02-14T18:30:54.128Z,152.10
2019-02-14T18:33:24.078Z,151.03
2019-02-14T18:35:54.032Z,148.30
2019-02-14T18:38:24.056Z,151.20
2019-02-14T18:40:54.009Z,143.43
2019-02-14T18:43:23.986Z,147.77
2019-02-14T18:45:53.943Z,144.03
2019-02-14T18:48:23.905Z,141.20
2019-02-14T18:50:53.874Z,141.80
2019-02-14T18:53:23.841Z,143.43
2019-02-14T18:55:53.833Z,143.33
2019-02-14T18:58:26.339Z,141.13
2019-02-14T19:00:55.730Z,145.90
2019-02-14T19:03:25.786Z,141.13
2019-02-14T19:05:55.746Z,137.90
2019-02-14T19:08:25.705Z,141.63
2019-02-14T19:10:57.964Z,139.97
2019-02-14T19:13:27.983Z,142.07
2019-02-14T19:15:57.934Z,141.67
2019-02-14T19:18:27.887Z,146.40
2019-02-14T19:20:57.842Z,142.20
2019-02-14T19:23:28.877Z,147.03
2019-02-14T19:25:58.828Z,152.07
2019-02-14T19:28:28.698Z,149.80
2019-02-14T19:30:58.642Z,153.23
2019-02-14T19:33:28.555Z,157.20
2019-02-14T19:35:58.505Z,162.73
2019-02-14T19:38:28.470Z,166.60
2019-02-14T19:40:58.537Z,158.97
2019-02-14T19:43:28.606Z,166.03
2019-02-14T19:45:58.563Z,180.40
2019-02-14T19:48:28.472Z,176.17
2019-02-14T19:50:58.414Z,177.43
2019-02-14T19:53:28.322Z,185.40
2019-02-14T19:55:58.304Z,191.10
2019-02-14T19:58:28.374Z,188.00
2019-02-14T20:00:58.438Z,193.73
2019-02-14T20:03:28.478Z,190.07
2019-02-14T20:05:58.442Z,188.17
2019-02-14T20:08:28.446Z,184.30
2019-02-14T20:10:58.395Z,193.93
2019-02-14T20:13:28.355Z,181.07
2019-02-14T20:15:58.331Z,178.23
2019-02-14T20:18:28.428Z,185.73
2019-02-14T20:20:58.431Z,184.73
2019-02-14T20:23:28.432Z,187.87
2019-02-14T20:25:58.460Z,195.13
2019-02-14T20:28:28.543Z,216.17
2019-02-14T20:30:58.527Z,240.63
2019-02-14T20:33:28.609Z,268.83
2019-02-14T20:35:58.672Z,241.93
2019-02-14T20:38:28.912Z,244.33
2019-02-14T20:40:58.962Z,235.30
2019-02-14T20:43:28.993Z,240.20
2019-02-14T20:45:59.064Z,248.33
2019-02-14T20:48:29.083Z,252.63
2019-02-14T20:50:59.111Z,251.63
2019-02-14T20:53:30.128Z,250.03
2019-02-14T20:56:00.195Z,249.00
2019-02-14T20:58:30.214Z,242.57
2019-02-14T21:01:00.395Z,237.97
2019-02-14T21:03:30.343Z,248.23
2019-02-14T21:06:00.350Z,242.90
2019-02-14T21:08:30.382Z,239.00
2019-02-14T21:11:00.344Z,248.57
2019-02-14T21:13:30.412Z,250.70
2019-02-14T21:16:00.457Z,265.13
2019-02-14T21:18:30.455Z,266.10
2019-02-14T21:21:00.436Z,257.30
2019-02-14T21:23:30.438Z,260.10
2019-02-14T21:26:00.422Z,260.53
2019-02-14T21:28:30.448Z,256.30
2019-02-14T21:31:00.524Z,254.20
2019-02-14T21:33:30.495Z,249.33
2019-02-14T21:36:00.489Z,247.70
2019-02-14T21:38:30.465Z,248.67
2019-02-14T21:41:00.547Z,243.97
2019-02-14T21:43:30.557Z,249.33
2019-02-14T21:46:00.617Z,247.83
2019-02-14T21:48:30.580Z,252.40
2019-02-14T21:51:00.652Z,249.10
2019-02-14T21:53:30.659Z,244.67
2019-02-14T21:56:00.783Z,247.67
2019-02-14T21:58:30.818Z,251.33
2019-02-14T22:01:00.862Z,240.33
2019-02-14T22:03:31.014Z,237.23
2019-02-14T22:06:01.041Z,236.67
2019-02-14T22:08:31.067Z,235.03
2019-02-14T22:11:01.182Z,236.87
2019-02-14T22:13:31.126Z,239.43
2019-02-14T22:16:01.168Z,241.97
2019-02-14T22:18:31.146Z,231.47
2019-02-14T22:21:01.098Z,231.70
2019-02-14T22:23:31.138Z,228.80
2019-02-14T22:26:01.098Z,223.97
2019-02-14T22:28:31.222Z,228.40
2019-02-14T22:31:01.201Z,224.40
2019-02-14T22:33:32.404Z,224.63
2019-02-14T22:36:02.367Z,224.43
2019-02-14T22:38:32.415Z,230.23
2019-02-14T22:41:02.314Z,224.50
2019-02-14T22:43:32.265Z,225.70
2019-02-14T22:46:02.213Z,222.87
2019-02-14T22:48:32.114Z,220.80
2019-02-14T22:51:02.069Z,221.30
2019-02-14T22:53:32.014Z,226.10
2019-02-14T22:56:01.896Z,220.33
2019-02-14T22:58:31.834Z,223.23
2019-02-14T23:01:01.797Z,212.60
2019-02-14T23:03:32.210Z,215.73
2019-02-14T23:06:02.095Z,217.03
2019-02-14T23:08:32.063Z,212.27
2019-02-14T23:11:02.021Z,208.57
2019-02-14T23:13:32.941Z,210.10
2019-02-14T23:16:02.894Z,204.73
2019-02-14T23:18:32.853Z,210.83
2019-02-14T23:21:02.818Z,204.03
2019-02-14T23:23:32.770Z,201.03
2019-02-14T23:26:02.722Z,199.27
2019-02-14T23:28:32.707Z,204.80
2019-02-14T23:31:02.582Z,204.10
2019-02-14T23:33:32.582Z,197.73
2019-02-14T23:36:02.543Z,199.43
2019-02-14T23:38:32.558Z,200.77
2019-02-14T23:41:02.514Z,196.87
2019-02-14T23:43:32.520Z,194.83
2019-02-14T23:46:02.478Z,188.27
2019-02-14T23:48:32.510Z,187.10
2019-02-14T23:51:03.636Z,190.03
2019-02-14T23:53:33.766Z,190.40
2019-02-14T23:56:03.718Z,188.07
2019-02-14T23:58:33.599Z,190.17
